createdAt,value
2023-04-22T00:00:36.459Z,100265.97
2023-04-22T00:03:05.725Z,100264.22
2023-04-22T00:05:33.630Z,100260.41
2023-04-22T00:08:01.815Z,100257.53
2023-04-22T00:10:29.522Z,100266.88
2023-04-22T00:12:57.212Z,100266.75
2023-04-22T00:15:26.611Z,100256.28
2023-04-22T00:17:54.582Z,100246.34
2023-04-22T00:20:23.878Z,100245.38
2023-04-22T00:22:51.679Z,100248.09
2023-04-22T00:25:19.484Z,100245.28
2023-04-22T00:27:47.267Z,100240.88
2023-04-22T00:30:15.318Z,100240.81
2023-04-22T00:32:43.157Z,100230.09
2023-04-22T00:35:11.115Z,100235.34
2023-04-22T00:37:40.250Z,100215.63
2023-04-22T00:40:09.333Z,100228.16
2023-04-22T00:42:38.362Z,100223.16
2023-04-22T00:45:06.979Z,100225.69
2023-04-22T00:47:34.743Z,100221.44
2023-04-22T00:50:02.721Z,100222.16
2023-04-22T00:52:30.496Z,100214.69
2023-04-22T00:54:59.567Z,100222.09
2023-04-22T00:57:27.812Z,100221.66
2023-04-22T00:59:55.512Z,100217.59
2023-04-22T01:02:23.405Z,100213.50
2023-04-22T01:04:51.194Z,100218.47
2023-04-22T01:07:18.966Z,100216.16
2023-04-22T01:09:46.959Z,100211.84
2023-04-22T01:12:15.942Z,100201.97
2023-04-22T01:14:43.740Z,100211.59
2023-04-22T01:17:13.858Z,100209.81
2023-04-22T01:19:42.592Z,100207.91
2023-04-22T01:22:13.022Z,100212.25
2023-04-22T01:24:42.302Z,100211.31
2023-04-22T01:27:10.515Z,100207.91
2023-04-22T01:29:39.174Z,100203.38
2023-04-22T01:32:07.673Z,100205.19
2023-04-22T01:34:35.561Z,100207.25
2023-04-22T01:37:03.361Z,100203.06
2023-04-22T01:39:31.481Z,100207.38
2023-04-22T01:42:02.183Z,100199.69
2023-04-22T01:44:30.057Z,100202.53
2023-04-22T01:46:57.869Z,100198.41
2023-04-22T01:49:25.566Z,100195.00
2023-04-22T01:51:53.301Z,100205.16
2023-04-22T01:54:21.034Z,100192.34
2023-04-22T01:56:52.654Z,100191.84
2023-04-22T01:59:22.034Z,100190.66
2023-04-22T02:01:50.137Z,100198.03
2023-04-22T02:04:18.009Z,100200.53
2023-04-22T02:06:45.714Z,100190.66
2023-04-22T02:09:13.419Z,100190.56
2023-04-22T02:11:41.077Z,100191.84
2023-04-22T02:14:08.808Z,100182.81
2023-04-22T02:16:37.854Z,100181.41
2023-04-22T02:19:05.526Z,100179.16
2023-04-22T02:21:33.423Z,100183.78
2023-04-22T02:24:01.184Z,100178.63
2023-04-22T02:26:30.560Z,100182.16
2023-04-22T02:28:58.238Z,100177.16
2023-04-22T02:31:26.161Z,100172.78
2023-04-22T02:33:55.360Z,100167.69
2023-04-22T02:36:23.077Z,100170.94
2023-04-22T02:38:50.949Z,100171.88
2023-04-22T02:41:18.731Z,100172.09
2023-04-22T02:43:47.004Z,100167.00
2023-04-22T02:46:16.229Z,100164.75
2023-04-22T02:48:44.198Z,100158.56
2023-04-22T02:51:13.478Z,100159.59
2023-04-22T02:53:41.227Z,100159.72
2023-04-22T02:56:09.600Z,100158.66
2023-04-22T02:58:37.312Z,100150.09
2023-04-22T03:01:05.150Z,100163.84
2023-04-22T03:03:33.078Z,100161.28
2023-04-22T03:06:00.981Z,100156.19
2023-04-22T03:08:30.067Z,100148.28
2023-04-22T03:10:57.824Z,100156.97
2023-04-22T03:13:25.602Z,100162.25
2023-04-22T03:15:53.393Z,100156.59
2023-04-22T03:18:21.099Z,100147.56
2023-04-22T03:20:49.152Z,100150.84
2023-04-22T03:23:16.974Z,100154.44
2023-04-22T03:25:46.097Z,100152.81
2023-04-22T03:28:13.849Z,100149.88
2023-04-22T03:30:41.633Z,100145.47
2023-04-22T03:33:09.472Z,100136.13
2023-04-22T03:35:37.202Z,100140.47
2023-04-22T03:38:04.940Z,100146.28
2023-04-22T03:40:32.619Z,100130.31
2023-04-22T03:43:01.683Z,100135.03
2023-04-22T03:45:30.098Z,100136.16
2023-04-22T03:47:57.889Z,100133.25
2023-04-22T03:50:26.151Z,100123.38
2023-04-22T03:52:53.854Z,100118.94
2023-04-22T03:55:21.722Z,100113.66
2023-04-22T03:57:49.453Z,100113.59
2023-04-22T04:00:18.754Z,100107.69
2023-04-22T04:02:46.809Z,100116.84
2023-04-22T04:05:15.021Z,100118.91
2023-04-22T04:07:42.722Z,100116.66
2023-04-22T04:10:12.289Z,100112.66
2023-04-22T04:12:39.957Z,100108.03
2023-04-22T04:15:08.873Z,100106.03
2023-04-22T04:17:37.926Z,100106.97
2023-04-22T04:20:07.115Z,100100.97
2023-04-22T04:22:35.146Z,100104.13
2023-04-22T04:25:03.418Z,100102.75
2023-04-22T04:27:31.075Z,100110.56
2023-04-22T04:29:58.743Z,100115.44
2023-04-22T04:32:27.034Z,100114.16
2023-04-22T04:34:57.649Z,100105.50
2023-04-22T04:37:25.318Z,100107.06
2023-04-22T04:39:53.718Z,100107.81
2023-04-22T04:42:24.425Z,100093.88
2023-04-22T04:44:52.134Z,100090.72
2023-04-22T04:47:20.114Z,100088.72
2023-04-22T04:49:47.803Z,100108.88
2023-04-22T04:52:16.863Z,100104.88
2023-04-22T04:54:44.604Z,100111.41
2023-04-22T04:57:12.272Z,100103.81
2023-04-22T04:59:40.155Z,100102.13
2023-04-22T05:02:08.535Z,100108.88
2023-04-22T05:04:36.372Z,100108.03
2023-04-22T05:07:04.320Z,100106.88
2023-04-22T05:09:37.409Z,100113.09
2023-04-22T05:12:05.735Z,100119.41
2023-04-22T05:14:33.474Z,100119.81
2023-04-22T05:17:01.422Z,100118.03
2023-04-22T05:19:29.081Z,100125.69
2023-04-22T05:21:56.776Z,100122.94
2023-04-22T05:24:24.406Z,100113.44
2023-04-22T05:26:53.437Z,100118.81
2023-04-22T05:29:21.073Z,100115.22
2023-04-22T05:31:48.804Z,100120.69
2023-04-22T05:34:16.620Z,100121.63
2023-04-22T05:36:44.387Z,100122.47
2023-04-22T05:39:12.912Z,100124.53
2023-04-22T05:41:40.643Z,100126.84
2023-04-22T05:44:09.674Z,100121.09
2023-04-22T05:46:37.457Z,100124.09
2023-04-22T05:49:05.197Z,100121.28
2023-04-22T05:51:32.945Z,100112.94
2023-04-22T05:54:01.064Z,100098.03
2023-04-22T05:56:29.079Z,100094.81
2023-04-22T05:58:56.801Z,100094.97
2023-04-22T06:01:25.941Z,100106.44
2023-04-22T06:03:53.730Z,100109.22
2023-04-22T06:06:21.635Z,100114.44
2023-04-22T06:08:49.342Z,100108.03
2023-04-22T06:11:17.080Z,100106.84
2023-04-22T06:13:44.716Z,100106.34
2023-04-22T06:16:12.444Z,100105.19
2023-04-22T06:18:43.468Z,100104.00
2023-04-22T06:21:11.468Z,100108.59
2023-04-22T06:23:39.312Z,100098.34
2023-04-22T06:26:07.144Z,100097.03
2023-04-22T06:28:34.845Z,100104.28
2023-04-22T06:31:03.469Z,100102.88
2023-04-22T06:33:31.206Z,100101.91
2023-04-22T06:36:00.260Z,100098.63
2023-04-22T06:38:27.992Z,100096.66
2023-04-22T06:40:55.646Z,100105.28
2023-04-22T06:43:23.288Z,100107.69
2023-04-22T06:45:51.366Z,100108.41
2023-04-22T06:48:19.118Z,100121.38
2023-04-22T06:50:46.785Z,100115.13
2023-04-22T06:53:16.004Z,100114.53
2023-04-22T06:55:43.723Z,100101.19
2023-04-22T06:58:11.390Z,100099.13
2023-04-22T07:00:39.023Z,100104.19
2023-04-22T07:03:06.759Z,100103.50
2023-04-22T07:05:34.674Z,100105.69
2023-04-22T07:08:02.338Z,100093.22
2023-04-22T07:10:31.446Z,100100.47
2023-04-22T07:12:59.070Z,100096.56
2023-04-22T07:15:26.831Z,100098.63
2023-04-22T07:17:54.624Z,100106.06
2023-04-22T07:20:22.423Z,100109.78
2023-04-22T07:22:50.156Z,100111.06
2023-04-22T07:25:18.039Z,100113.09
2023-04-22T07:27:47.173Z,100108.94
2023-04-22T07:30:15.213Z,100102.75
2023-04-22T07:32:42.882Z,100090.94
2023-04-22T07:35:10.945Z,100091.75
2023-04-22T07:37:38.677Z,100085.38
2023-04-22T07:40:11.668Z,100078.03
2023-04-22T07:42:39.726Z,100082.53
2023-04-22T07:45:09.752Z,100080.28
2023-04-22T07:47:37.559Z,100077.22
2023-04-22T07:50:49.987Z,100081.09
2023-04-22T07:53:17.746Z,100073.09
2023-04-22T07:55:46.288Z,100071.56
2023-04-22T07:58:13.959Z,100060.75
2023-04-22T08:00:41.694Z,100072.78
2023-04-22T08:03:09.795Z,100078.47
2023-04-22T08:05:37.716Z,100069.38
2023-04-22T08:08:07.249Z,100059.38
2023-04-22T08:10:34.931Z,100058.31
2023-04-22T08:13:02.710Z,100055.66
2023-04-22T08:15:30.619Z,100045.19
2023-04-22T08:17:58.464Z,100046.19
2023-04-22T08:20:26.813Z,100050.94
2023-04-22T08:22:58.180Z,100052.75
2023-04-22T08:25:27.437Z,100043.59
2023-04-22T08:27:55.152Z,100045.28
2023-04-22T08:30:22.928Z,100046.50
2023-04-22T08:32:52.998Z,100024.63
2023-04-22T08:35:20.816Z,100022.97
2023-04-22T08:37:48.599Z,100025.41
2023-04-22T08:40:16.325Z,100014.00
2023-04-22T08:42:46.261Z,100024.59
2023-04-22T08:45:14.685Z,100020.59
2023-04-22T08:47:42.530Z,100009.63
2023-04-22T08:50:10.776Z,100011.81
2023-04-22T08:52:38.736Z,100011.69
2023-04-22T08:55:07.597Z,100020.56
2023-04-22T08:57:37.335Z,100032.16
2023-04-22T09:00:08.725Z,100031.22
2023-04-22T09:02:38.126Z,100041.78
2023-04-22T09:05:07.672Z,100032.59
2023-04-22T09:07:36.459Z,100036.34
2023-04-22T09:10:04.326Z,100042.28
2023-04-22T09:12:32.081Z,100042.41
2023-04-22T09:14:59.747Z,100040.84
2023-04-22T09:17:38.166Z,100039.63
2023-04-22T09:20:08.796Z,100015.06
2023-04-22T09:22:41.148Z,100024.50
2023-04-22T09:25:16.807Z,100023.94
2023-04-22T09:27:44.635Z,100010.97
2023-04-22T09:30:14.702Z,100008.47
2023-04-22T09:32:43.808Z,100007.69
2023-04-22T09:35:11.603Z,100001.72
2023-04-22T09:37:48.887Z,99989.31
2023-04-22T09:40:18.023Z,99967.03
2023-04-22T09:42:49.938Z,99981.28
2023-04-22T09:45:28.465Z,99983.31
2023-04-22T09:47:58.456Z,99981.06
2023-04-22T09:50:27.786Z,99974.53
2023-04-22T09:52:57.142Z,99972.81
2023-04-22T09:55:26.354Z,99980.03
2023-04-22T09:57:55.136Z,99979.63
2023-04-22T10:00:24.153Z,99972.31
2023-04-22T10:02:52.069Z,99973.06
2023-04-22T10:05:21.893Z,99982.66
2023-04-22T10:07:49.736Z,99976.75
2023-04-22T10:10:17.575Z,99972.47
2023-04-22T10:12:45.638Z,99969.72
2023-04-22T10:15:13.431Z,99969.13
2023-04-22T10:17:41.688Z,99960.56
2023-04-22T10:20:14.456Z,99965.59
2023-04-22T10:22:43.989Z,99960.22
2023-04-22T10:25:15.511Z,99964.84
2023-04-22T10:27:43.220Z,99964.59
2023-04-22T10:30:12.561Z,99953.19
2023-04-22T10:32:40.337Z,99944.47
2023-04-22T10:35:12.996Z,99947.22
2023-04-22T10:37:46.021Z,99948.47
2023-04-22T10:40:17.232Z,99947.34
2023-04-22T10:42:52.236Z,99938.38
2023-04-22T10:45:20.864Z,99943.41
2023-04-22T10:47:48.621Z,99924.94
2023-04-22T10:50:22.653Z,99937.16
2023-04-22T10:52:53.814Z,99924.47
2023-04-22T10:55:21.781Z,99919.19
2023-04-22T10:57:51.221Z,99934.19
2023-04-22T11:00:53.011Z,99932.53
2023-04-22T11:03:27.652Z,99916.59
2023-04-22T11:06:17.399Z,99917.06
2023-04-22T11:08:48.130Z,99924.19
2023-04-22T11:11:18.510Z,99931.25
2023-04-22T11:13:50.576Z,99929.84
2023-04-22T11:16:20.470Z,99920.41
2023-04-22T11:18:49.384Z,99936.84
2023-04-22T11:21:17.366Z,99930.28
2023-04-22T11:23:53.006Z,99934.47
2023-04-22T11:26:33.981Z,99924.34
2023-04-22T11:29:01.766Z,99934.19
2023-04-22T11:31:29.444Z,99916.28
2023-04-22T11:33:59.912Z,99910.53
2023-04-22T11:36:27.690Z,99912.81
2023-04-22T11:38:57.154Z,99908.88
2023-04-22T11:41:26.034Z,99912.19
2023-04-22T11:43:54.846Z,99913.84
2023-04-22T11:46:30.084Z,99916.81
2023-04-22T11:49:12.758Z,99926.06
2023-04-22T11:51:53.430Z,99906.97
2023-04-22T11:54:34.778Z,99911.53
2023-04-22T11:57:04.373Z,99901.53
2023-04-22T11:59:32.162Z,99899.22
2023-04-22T12:01:59.913Z,99887.72
2023-04-22T12:04:27.714Z,99894.09
2023-04-22T12:06:55.486Z,99885.25
2023-04-22T12:09:25.825Z,99885.53
2023-04-22T12:11:54.955Z,99878.41
2023-04-22T12:14:22.800Z,99874.03
2023-04-22T12:16:51.788Z,99876.94
2023-04-22T12:19:26.801Z,99871.28
2023-04-22T12:21:56.603Z,99881.59
2023-04-22T12:24:29.027Z,99870.88
2023-04-22T12:26:58.727Z,99869.41
2023-04-22T12:29:32.527Z,99878.69
2023-04-22T12:32:00.472Z,99885.56
2023-04-22T12:34:28.229Z,99880.09
2023-04-22T12:36:56.362Z,99871.22
2023-04-22T12:39:24.140Z,99853.91
2023-04-22T12:41:51.836Z,99859.34
2023-04-22T12:44:21.726Z,99875.78
2023-04-22T12:46:51.350Z,99861.69
2023-04-22T12:49:19.148Z,99860.31
2023-04-22T12:51:46.929Z,99861.38
2023-04-22T12:54:14.619Z,99852.47
2023-04-22T12:56:42.327Z,99860.59
2023-04-22T12:59:10.013Z,99850.34
2023-04-22T13:01:39.231Z,99845.44
2023-04-22T13:04:07.597Z,99844.94
2023-04-22T13:06:36.293Z,99837.72
2023-04-22T13:09:04.426Z,99834.44
2023-04-22T13:11:32.277Z,99833.78
2023-04-22T13:14:00.024Z,99829.03
2023-04-22T13:16:27.818Z,99835.03
2023-04-22T13:18:56.891Z,99823.13
2023-04-22T13:21:24.616Z,99817.84
2023-04-22T13:23:53.171Z,99819.81
2023-04-22T13:26:21.042Z,99807.19
2023-04-22T13:28:48.826Z,99814.72
2023-04-22T13:31:16.783Z,99818.25
2023-04-22T13:33:45.077Z,99802.78
2023-04-22T13:36:14.132Z,99803.56
2023-04-22T13:38:41.907Z,99808.53
2023-04-22T13:41:09.684Z,99808.75
2023-04-22T13:43:37.961Z,99816.16
2023-04-22T13:46:06.552Z,99811.03
2023-04-22T13:48:34.272Z,99797.38
2023-04-22T13:51:01.950Z,99810.09
2023-04-22T13:53:32.379Z,99814.22
2023-04-22T13:56:01.198Z,99802.34
2023-04-22T13:58:28.919Z,99802.78
2023-04-22T14:00:56.611Z,99802.13
2023-04-22T14:03:24.792Z,99800.13
2023-04-22T14:05:52.786Z,99799.19
2023-04-22T14:08:20.513Z,99798.19
2023-04-22T14:10:49.662Z,99798.22
2023-04-22T14:13:17.433Z,99792.88
2023-04-22T14:15:45.152Z,99791.63
2023-04-22T14:18:12.932Z,99782.66
2023-04-22T14:20:41.207Z,99775.91
2023-04-22T14:23:08.897Z,99771.34
2023-04-22T14:25:36.622Z,99768.84
2023-04-22T14:28:05.721Z,99754.72
2023-04-22T14:30:33.630Z,99754.38
2023-04-22T14:33:01.579Z,99756.44
2023-04-22T14:35:29.769Z,99758.06
2023-04-22T14:37:57.476Z,99751.66
2023-04-22T14:40:28.118Z,99739.34
2023-04-22T14:42:55.902Z,99742.75
2023-04-22T14:45:25.497Z,99747.03
2023-04-22T14:47:53.848Z,99755.78
2023-04-22T14:50:21.812Z,99759.75
2023-04-22T14:52:49.631Z,99771.34
2023-04-22T14:55:23.113Z,99786.22
2023-04-22T14:57:56.811Z,99769.59
2023-04-22T15:00:26.754Z,99764.44
2023-04-22T15:02:55.288Z,99774.47
2023-04-22T15:05:23.662Z,99783.50
2023-04-22T15:07:51.480Z,99770.59
2023-04-22T15:10:19.598Z,99772.81
2023-04-22T15:12:47.337Z,99787.91
2023-04-22T15:15:16.096Z,99801.88
2023-04-22T15:17:45.724Z,99799.78
2023-04-22T15:20:13.877Z,99813.59
2023-04-22T15:22:42.205Z,99806.53
2023-04-22T15:25:10.909Z,99820.81
2023-04-22T15:27:39.121Z,99831.34
2023-04-22T15:30:08.530Z,99829.94
2023-04-22T15:32:37.120Z,99852.31
2023-04-22T15:35:07.351Z,99859.41
2023-04-22T15:37:35.181Z,99867.00
2023-04-22T15:40:03.652Z,99868.22
2023-04-22T15:42:31.439Z,99885.22
2023-04-22T15:44:59.226Z,99881.03
2023-04-22T15:47:29.046Z,99879.16
2023-04-22T15:49:57.391Z,99878.13
2023-04-22T15:52:26.429Z,99887.97
2023-04-22T15:54:54.154Z,99886.94
2023-04-22T15:57:21.850Z,99882.44
2023-04-22T15:59:56.259Z,99887.19
2023-04-22T16:02:31.077Z,99886.31
2023-04-22T16:04:58.906Z,99894.13
2023-04-22T16:07:27.975Z,99896.16
2023-04-22T16:09:55.724Z,99886.38
2023-04-22T16:12:23.852Z,99895.22
2023-04-22T16:14:51.692Z,99886.00
2023-04-22T16:17:20.137Z,99887.13
2023-04-22T16:19:47.911Z,99887.00
2023-04-22T16:22:15.739Z,99887.00
2023-04-22T16:24:44.757Z,99878.06
2023-04-22T16:27:16.256Z,99894.19
2023-04-22T16:29:44.494Z,99887.88
2023-04-22T16:32:12.168Z,99896.31
2023-04-22T16:34:39.948Z,99897.06
2023-04-22T16:37:07.798Z,99897.78
2023-04-22T16:39:35.532Z,99893.06
2023-04-22T16:42:04.666Z,99896.41
2023-04-22T16:44:32.391Z,99889.84
2023-04-22T16:47:00.186Z,99892.75
2023-04-22T16:49:27.871Z,99890.66
2023-04-22T16:51:55.710Z,99889.84
2023-04-22T16:54:23.493Z,99886.69
2023-04-22T16:56:51.186Z,99890.03
2023-04-22T16:59:20.255Z,99900.16
2023-04-22T17:01:48.056Z,99904.38
2023-04-22T17:04:16.104Z,99896.97
2023-04-22T17:06:45.717Z,99889.22
2023-04-22T17:09:13.465Z,99894.28
2023-04-22T17:11:41.210Z,99890.94
2023-04-22T17:14:08.953Z,99895.69
2023-04-22T17:16:38.404Z,99895.97
2023-04-22T17:19:06.081Z,99890.78
2023-04-22T17:21:34.212Z,99890.81
2023-04-22T17:24:03.813Z,99888.00
2023-04-22T17:26:31.558Z,99889.22
2023-04-22T17:28:59.324Z,99895.81
2023-04-22T17:31:27.546Z,99886.84
2023-04-22T17:33:56.671Z,99882.78
2023-04-22T17:36:24.469Z,99877.13
2023-04-22T17:38:52.189Z,99868.44
2023-04-22T17:41:19.863Z,99877.50
2023-04-22T17:43:47.587Z,99866.63
2023-04-22T17:46:15.783Z,99882.47
2023-04-22T17:48:46.529Z,99891.81
2023-04-22T17:51:15.842Z,99878.88
2023-04-22T17:53:43.560Z,99878.25
2023-04-22T17:56:11.353Z,99874.06
2023-04-22T17:58:39.185Z,99876.22
2023-04-22T18:01:07.328Z,99875.28
2023-04-22T18:03:35.678Z,99877.94
2023-04-22T18:06:03.547Z,99884.66
2023-04-22T18:08:32.637Z,99873.88
2023-04-22T18:11:02.096Z,99865.94
2023-04-22T18:13:29.834Z,99864.88
2023-04-22T18:15:57.482Z,99873.25
2023-04-22T18:18:25.232Z,99875.53
2023-04-22T18:20:53.034Z,99877.19
2023-04-22T18:23:21.204Z,99876.66
2023-04-22T18:25:50.309Z,99872.91
2023-04-22T18:28:18.067Z,99876.41
2023-04-22T18:30:45.747Z,99875.97
2023-04-22T18:33:13.468Z,99866.66
2023-04-22T18:35:42.037Z,99872.41
2023-04-22T18:38:09.791Z,99881.13
2023-04-22T18:40:37.455Z,99891.81
2023-04-22T18:43:06.536Z,99884.94
2023-04-22T18:45:34.274Z,99896.00
2023-04-22T18:48:02.116Z,99878.88
2023-04-22T18:50:30.019Z,99876.25
2023-04-22T18:52:57.660Z,99901.22
2023-04-22T18:55:25.470Z,99897.13
2023-04-22T18:57:53.209Z,99905.38
2023-04-22T19:00:22.471Z,99898.66
2023-04-22T19:02:50.370Z,99895.94
2023-04-22T19:05:18.164Z,99904.94
2023-04-22T19:07:45.883Z,99913.25
2023-04-22T19:10:13.770Z,99908.72
2023-04-22T19:12:41.618Z,99922.13
2023-04-22T19:15:10.085Z,99935.31
2023-04-22T19:17:39.293Z,99946.47
2023-04-22T19:20:08.507Z,99949.31
2023-04-22T19:22:36.413Z,99949.91
2023-04-22T19:25:06.411Z,99953.88
2023-04-22T19:27:34.533Z,99959.31
2023-04-22T19:30:02.270Z,99969.16
2023-04-22T19:32:30.058Z,99979.91
2023-04-22T19:34:59.601Z,99974.13
2023-04-22T19:37:28.281Z,99962.56
2023-04-22T19:39:56.035Z,99964.72
2023-04-22T19:42:23.752Z,99957.88
2023-04-22T19:44:52.016Z,99962.22
2023-04-22T19:47:20.103Z,99958.84
2023-04-22T19:49:48.302Z,99969.91
2023-04-22T19:52:17.522Z,99968.69
2023-04-22T19:54:47.854Z,99971.34
2023-04-22T19:57:16.117Z,99976.56
2023-04-22T19:59:44.747Z,99976.88
2023-04-22T20:02:14.212Z,99987.84
2023-04-22T20:04:42.712Z,99988.47
2023-04-22T20:07:11.934Z,99989.41
2023-04-22T20:09:41.399Z,99987.50
2023-04-22T20:12:09.535Z,99984.38
2023-04-22T20:14:37.978Z,99981.47
2023-04-22T20:17:07.361Z,99986.34
2023-04-22T20:19:35.331Z,99993.50
2023-04-22T20:22:04.009Z,99995.53
2023-04-22T20:24:33.040Z,100003.13
2023-04-22T20:27:02.334Z,100009.44
2023-04-22T20:29:31.118Z,100003.03
2023-04-22T20:31:59.250Z,100004.50
2023-04-22T20:34:27.649Z,100022.13
2023-04-22T20:36:55.476Z,100013.97
2023-04-22T20:39:23.663Z,100009.41
2023-04-22T20:41:56.315Z,100022.78
2023-04-22T20:44:26.106Z,100023.75
2023-04-22T20:46:55.779Z,100023.75
2023-04-22T20:49:23.508Z,100035.69
2023-04-22T20:51:51.301Z,100033.06
2023-04-22T20:54:28.507Z,100041.94
2023-04-22T20:56:57.794Z,100045.59
2023-04-22T20:59:26.908Z,100029.75
2023-04-22T21:01:55.403Z,100055.97
2023-04-22T21:04:24.130Z,100050.06
2023-04-22T21:06:52.499Z,100045.88
2023-04-22T21:09:21.716Z,100049.44
2023-04-22T21:11:51.178Z,100057.28
2023-04-22T21:14:20.918Z,100059.56
2023-04-22T21:16:55.105Z,100050.09
2023-04-22T21:19:23.442Z,100056.22
2023-04-22T21:21:52.387Z,100058.66
2023-04-22T21:24:21.040Z,100063.69
2023-04-22T21:26:48.938Z,100059.72
2023-04-22T21:29:17.130Z,100052.69
2023-04-22T21:31:51.582Z,100061.34
2023-04-22T21:34:26.918Z,100060.47
2023-04-22T21:36:54.688Z,100056.69
2023-04-22T21:39:22.409Z,100053.22
2023-04-22T21:41:50.227Z,100051.78
2023-04-22T21:44:17.899Z,100045.50
2023-04-22T21:46:46.514Z,100055.22
2023-04-22T21:49:14.234Z,100064.22
2023-04-22T21:51:43.375Z,100053.03
2023-04-22T21:54:11.131Z,100059.34
2023-04-22T21:56:38.872Z,100059.53
2023-04-22T21:59:06.656Z,100058.06
2023-04-22T22:01:34.493Z,100066.69
2023-04-22T22:04:04.108Z,100070.75
2023-04-22T22:06:33.326Z,100060.09
2023-04-22T22:09:02.516Z,100071.75
2023-04-22T22:11:31.481Z,100066.09
2023-04-22T22:13:59.482Z,100069.91
2023-04-22T22:16:27.391Z,100080.84
2023-04-22T22:18:55.714Z,100084.38
2023-04-22T22:21:23.574Z,100080.03
2023-04-22T22:23:51.825Z,100078.38
2023-04-22T22:26:21.372Z,100095.94
2023-04-22T22:28:49.211Z,100087.66
2023-04-22T22:31:16.908Z,100094.06
2023-04-22T22:33:45.026Z,100097.91
2023-04-22T22:36:12.848Z,100100.97
2023-04-22T22:38:40.669Z,100094.94
2023-04-22T22:41:08.356Z,100090.50
2023-04-22T22:43:37.383Z,100094.19
2023-04-22T22:46:05.256Z,100107.81
2023-04-22T22:48:33.216Z,100092.19
2023-04-22T22:51:01.702Z,100095.34
2023-04-22T22:53:29.419Z,100097.91
2023-04-22T22:55:57.124Z,100101.97
2023-04-22T22:58:24.906Z,100101.59
2023-04-22T23:00:54.107Z,100101.91
2023-04-22T23:03:22.085Z,100095.88
2023-04-22T23:05:49.826Z,100097.56
2023-04-22T23:08:17.600Z,100093.66
2023-04-22T23:10:45.287Z,100097.53
2023-04-22T23:13:12.967Z,100090.41
2023-04-22T23:15:40.837Z,100104.06
2023-04-22T23:18:10.600Z,100104.56
2023-04-22T23:20:38.419Z,100108.56
2023-04-22T23:23:06.436Z,100099.72
2023-04-22T23:25:34.715Z,100095.69
2023-04-22T23:28:03.626Z,100093.56
2023-04-22T23:30:31.886Z,100097.50
2023-04-22T23:33:02.690Z,100098.03
2023-04-22T23:35:34.488Z,100099.31
2023-04-22T23:38:05.438Z,100095.47
2023-04-22T23:40:33.129Z,100094.81
2023-04-22T23:43:00.805Z,100100.38
2023-04-22T23:45:28.535Z,100086.91
2023-04-22T23:47:56.247Z,100087.41
2023-04-22T23:50:23.998Z,100093.41
2023-04-22T23:52:53.119Z,100095.69
2023-04-22T23:55:21.483Z,100093.78
2023-04-22T23:57:49.937Z,100092.22
